sensor_id;sensor_type;location;lat;lon;timestamp;temperature;humidity
74661;SHT31;63191;39.566;2.654;2023-04-01T00:01:02;17.89;65.77
74661;SHT31;63191;39.566;2.654;2023-04-01T00:03:30;17.86;65.60
74661;SHT31;63191;39.566;2.654;2023-04-01T00:05:59;17.83;65.42
74661;SHT31;63191;39.566;2.654;2023-04-01T00:08:25;17.80;65.40
74661;SHT31;63191;39.566;2.654;2023-04-01T00:10:52;17.76;65.46
74661;SHT31;63191;39.566;2.654;2023-04-01T00:13:19;17.72;65.53
74661;SHT31;63191;39.566;2.654;2023-04-01T00:15:46;17.66;65.75
74661;SHT31;63191;39.566;2.654;2023-04-01T00:18:12;17.62;65.91
74661;SHT31;63191;39.566;2.654;2023-04-01T00:20:38;17.59;66.03
74661;SHT31;63191;39.566;2.654;2023-04-01T00:23:04;17.53;66.32
74661;SHT31;63191;39.566;2.654;2023-04-01T00:25:31;17.49;66.44
74661;SHT31;63191;39.566;2.654;2023-04-01T00:27:57;17.42;66.53
74661;SHT31;63191;39.566;2.654;2023-04-01T00:30:24;17.36;66.70
74661;SHT31;63191;39.566;2.654;2023-04-01T00:32:53;17.30;66.80
74661;SHT31;63191;39.566;2.654;2023-04-01T00:35:20;17.23;66.98
74661;SHT31;63191;39.566;2.654;2023-04-01T00:37:46;17.17;67.16
74661;SHT31;63191;39.566;2.654;2023-04-01T00:40:34;17.12;67.40
74661;SHT31;63191;39.566;2.654;2023-04-01T00:43:15;17.07;67.61
74661;SHT31;63191;39.566;2.654;2023-04-01T00:45:46;17.02;67.70
74661;SHT31;63191;39.566;2.654;2023-04-01T00:48:20;16.97;67.59
74661;SHT31;63191;39.566;2.654;2023-04-01T00:50:57;16.94;67.44
74661;SHT31;63191;39.566;2.654;2023-04-01T00:53:30;16.88;67.38
74661;SHT31;63191;39.566;2.654;2023-04-01T00:56:00;16.85;67.31
74661;SHT31;63191;39.566;2.654;2023-04-01T00:58:31;16.81;67.30
74661;SHT31;63191;39.566;2.654;2023-04-01T01:01:02;16.78;67.30
74661;SHT31;63191;39.566;2.654;2023-04-01T01:03:28;16.74;67.40
74661;SHT31;63191;39.566;2.654;2023-04-01T01:06:31;16.73;67.50
74661;SHT31;63191;39.566;2.654;2023-04-01T01:11:37;16.70;67.48
74661;SHT31;63191;39.566;2.654;2023-04-01T01:16:54;16.66;67.46
74661;SHT31;63191;39.566;2.654;2023-04-01T01:25:24;16.63;67.38
74661;SHT31;63191;39.566;2.654;2023-04-01T01:31:20;16.62;67.35
74661;SHT31;63191;39.566;2.654;2023-04-01T01:37:16;16.58;67.34
74661;SHT31;63191;39.566;2.654;2023-04-01T01:39:46;16.55;67.40
74661;SHT31;63191;39.566;2.654;2023-04-01T01:42:26;16.52;67.40
74661;SHT31;63191;39.566;2.654;2023-04-01T01:44:53;16.50;67.45
74661;SHT31;63191;39.566;2.654;2023-04-01T01:47:22;16.49;67.51
74661;SHT31;63191;39.566;2.654;2023-04-01T01:49:48;16.49;67.50
74661;SHT31;63191;39.566;2.654;2023-04-01T01:52:16;16.49;67.44
74661;SHT31;63191;39.566;2.654;2023-04-01T01:54:50;16.48;67.41
74661;SHT31;63191;39.566;2.654;2023-04-01T01:57:20;16.47;67.50
74661;SHT31;63191;39.566;2.654;2023-04-01T01:59:52;16.46;67.50
74661;SHT31;63191;39.566;2.654;2023-04-01T02:02:25;16.46;67.50
74661;SHT31;63191;39.566;2.654;2023-04-01T02:04:52;16.45;67.50
74661;SHT31;63191;39.566;2.654;2023-04-01T02:07:23;16.44;67.50
74661;SHT31;63191;39.566;2.654;2023-04-01T02:09:53;16.43;67.50
74661;SHT31;63191;39.566;2.654;2023-04-01T02:12:19;16.43;67.50
74661;SHT31;63191;39.566;2.654;2023-04-01T02:14:54;16.43;67.49
74661;SHT31;63191;39.566;2.654;2023-04-01T02:17:30;16.44;67.40
74661;SHT31;63191;39.566;2.654;2023-04-01T02:20:03;16.44;67.40
74661;SHT31;63191;39.566;2.654;2023-04-01T02:22:35;16.45;67.36
74661;SHT31;63191;39.566;2.654;2023-04-01T02:25:08;16.44;67.30
74661;SHT31;63191;39.566;2.654;2023-04-01T02:27:39;16.44;67.21
74661;SHT31;63191;39.566;2.654;2023-04-01T02:30:09;16.42;67.20
74661;SHT31;63191;39.566;2.654;2023-04-01T02:32:35;16.41;67.17
74661;SHT31;63191;39.566;2.654;2023-04-01T02:35:06;16.41;67.14
74661;SHT31;63191;39.566;2.654;2023-04-01T02:37:39;16.41;67.10
74661;SHT31;63191;39.566;2.654;2023-04-01T02:40:09;16.41;67.10
74661;SHT31;63191;39.566;2.654;2023-04-01T02:42:37;16.43;67.02
74661;SHT31;63191;39.566;2.654;2023-04-01T02:45:04;16.45;66.93
74661;SHT31;63191;39.566;2.654;2023-04-01T02:47:30;16.48;66.89
74661;SHT31;63191;39.566;2.654;2023-04-01T02:49:56;16.48;66.80
74661;SHT31;63191;39.566;2.654;2023-04-01T02:52:25;16.47;66.80
74661;SHT31;63191;39.566;2.654;2023-04-01T02:54:54;16.48;66.79
74661;SHT31;63191;39.566;2.654;2023-04-01T02:57:21;16.47;66.74
74661;SHT31;63191;39.566;2.654;2023-04-01T02:59:47;16.47;66.74
74661;SHT31;63191;39.566;2.654;2023-04-01T03:02:13;16.46;66.70
74661;SHT31;63191;39.566;2.654;2023-04-01T03:04:40;16.44;66.72
74661;SHT31;63191;39.566;2.654;2023-04-01T03:07:06;16.43;66.80
74661;SHT31;63191;39.566;2.654;2023-04-01T03:09:33;16.41;66.83
74661;SHT31;63191;39.566;2.654;2023-04-01T03:11:59;16.39;66.90
74661;SHT31;63191;39.566;2.654;2023-04-01T03:14:25;16.37;66.91
74661;SHT31;63191;39.566;2.654;2023-04-01T03:16:50;16.37;66.92
74661;SHT31;63191;39.566;2.654;2023-04-01T03:19:16;16.39;66.90
74661;SHT31;63191;39.566;2.654;2023-04-01T03:21:42;16.38;66.90
74661;SHT31;63191;39.566;2.654;2023-04-01T03:24:07;16.38;66.97
74661;SHT31;63191;39.566;2.654;2023-04-01T03:26:33;16.37;67.00
74661;SHT31;63191;39.566;2.654;2023-04-01T03:28:59;16.36;67.06
74661;SHT31;63191;39.566;2.654;2023-04-01T03:31:24;16.34;67.09
74661;SHT31;63191;39.566;2.654;2023-04-01T03:33:50;16.32;67.10
74661;SHT31;63191;39.566;2.654;2023-04-01T03:36:16;16.31;67.15
74661;SHT31;63191;39.566;2.654;2023-04-01T03:38:43;16.28;67.22
74661;SHT31;63191;39.566;2.654;2023-04-01T03:41:16;16.26;67.31
74661;SHT31;63191;39.566;2.654;2023-04-01T03:43:43;16.25;67.30
74661;SHT31;63191;39.566;2.654;2023-04-01T03:46:09;16.23;67.37
74661;SHT31;63191;39.566;2.654;2023-04-01T03:48:35;16.22;67.40
74661;SHT31;63191;39.566;2.654;2023-04-01T03:51:01;16.24;67.40
74661;SHT31;63191;39.566;2.654;2023-04-01T03:53:27;16.25;67.40
74661;SHT31;63191;39.566;2.654;2023-04-01T03:55:53;16.27;67.40
74661;SHT31;63191;39.566;2.654;2023-04-01T03:58:19;16.30;67.40
74661;SHT31;63191;39.566;2.654;2023-04-01T04:00:45;16.31;67.42
74661;SHT31;63191;39.566;2.654;2023-04-01T04:03:11;16.31;67.41
74661;SHT31;63191;39.566;2.654;2023-04-01T04:05:37;16.31;67.41
74661;SHT31;63191;39.566;2.654;2023-04-01T04:08:03;16.30;67.41
74661;SHT31;63191;39.566;2.654;2023-04-01T04:10:29;16.28;67.43
74661;SHT31;63191;39.566;2.654;2023-04-01T04:12:55;16.25;67.48
74661;SHT31;63191;39.566;2.654;2023-04-01T04:15:21;16.22;67.49
74661;SHT31;63191;39.566;2.654;2023-04-01T04:17:48;16.18;67.56
74661;SHT31;63191;39.566;2.654;2023-04-01T04:20:14;16.15;67.65
74661;SHT31;63191;39.566;2.654;2023-04-01T04:22:40;16.11;67.71
74661;SHT31;63191;39.566;2.654;2023-04-01T04:25:06;16.07;67.76
74661;SHT31;63191;39.566;2.654;2023-04-01T04:27:33;16.03;67.83
74661;SHT31;63191;39.566;2.654;2023-04-01T04:30:00;15.97;67.91
74661;SHT31;63191;39.566;2.654;2023-04-01T04:32:25;15.94;67.99
74661;SHT31;63191;39.566;2.654;2023-04-01T04:34:51;15.91;68.07
74661;SHT31;63191;39.566;2.654;2023-04-01T04:37:17;15.90;68.17
74661;SHT31;63191;39.566;2.654;2023-04-01T04:39:42;15.88;68.28
74661;SHT31;63191;39.566;2.654;2023-04-01T04:42:08;15.88;68.32
74661;SHT31;63191;39.566;2.654;2023-04-01T04:44:34;15.86;68.40
74661;SHT31;63191;39.566;2.654;2023-04-01T04:47:00;15.85;68.40
74661;SHT31;63191;39.566;2.654;2023-04-01T04:49:26;15.81;68.47
74661;SHT31;63191;39.566;2.654;2023-04-01T04:51:54;15.79;68.50
74661;SHT31;63191;39.566;2.654;2023-04-01T04:54:19;15.77;68.56
74661;SHT31;63191;39.566;2.654;2023-04-01T04:56:45;15.76;68.58
74661;SHT31;63191;39.566;2.654;2023-04-01T04:59:11;15.73;68.59
74661;SHT31;63191;39.566;2.654;2023-04-01T05:01:37;15.71;68.66
74661;SHT31;63191;39.566;2.654;2023-04-01T05:04:03;15.72;68.78
74661;SHT31;63191;39.566;2.654;2023-04-01T05:06:29;15.74;68.80
74661;SHT31;63191;39.566;2.654;2023-04-01T05:08:56;15.78;68.79
74661;SHT31;63191;39.566;2.654;2023-04-01T05:11:22;15.81;68.80
74661;SHT31;63191;39.566;2.654;2023-04-01T05:13:48;15.84;68.80
74661;SHT31;63191;39.566;2.654;2023-04-01T05:16:16;15.84;68.71
74661;SHT31;63191;39.566;2.654;2023-04-01T05:18:44;15.83;68.63
74661;SHT31;63191;39.566;2.654;2023-04-01T05:21:11;15.82;68.35
74661;SHT31;63191;39.566;2.654;2023-04-01T05:23:39;15.83;68.17
74661;SHT31;63191;39.566;2.654;2023-04-01T05:26:07;15.82;67.81
74661;SHT31;63191;39.566;2.654;2023-04-01T05:28:36;15.83;67.54
74661;SHT31;63191;39.566;2.654;2023-04-01T05:31:03;15.83;67.49
74661;SHT31;63191;39.566;2.654;2023-04-01T05:33:30;15.83;67.55
74661;SHT31;63191;39.566;2.654;2023-04-01T05:35:56;15.80;67.60
74661;SHT31;63191;39.566;2.654;2023-04-01T05:38:35;15.79;67.63
74661;SHT31;63191;39.566;2.654;2023-04-01T05:41:02;15.77;67.79
74661;SHT31;63191;39.566;2.654;2023-04-01T05:43:28;15.75;67.90
74661;SHT31;63191;39.566;2.654;2023-04-01T05:45:55;15.75;67.90
74661;SHT31;63191;39.566;2.654;2023-04-01T05:48:21;15.77;67.90
74661;SHT31;63191;39.566;2.654;2023-04-01T05:50:47;15.80;67.92
74661;SHT31;63191;39.566;2.654;2023-04-01T05:53:13;15.82;67.97
74661;SHT31;63191;39.566;2.654;2023-04-01T05:55:38;15.84;68.02
74661;SHT31;63191;39.566;2.654;2023-04-01T05:58:04;15.87;68.09
74661;SHT31;63191;39.566;2.654;2023-04-01T06:00:30;15.89;68.10
74661;SHT31;63191;39.566;2.654;2023-04-01T06:02:57;15.91;68.10
74661;SHT31;63191;39.566;2.654;2023-04-01T06:05:27;15.91;68.09
74661;SHT31;63191;39.566;2.654;2023-04-01T06:07:58;15.91;68.03
74661;SHT31;63191;39.566;2.654;2023-04-01T06:10:36;15.92;68.09
74661;SHT31;63191;39.566;2.654;2023-04-01T06:24:31;16.12;67.85
74661;SHT31;63191;39.566;2.654;2023-04-01T06:32:55;16.83;67.25
74661;SHT31;63191;39.566;2.654;2023-04-01T06:35:36;17.33;66.49
74661;SHT31;63191;39.566;2.654;2023-04-01T06:49:53;19.51;61.70
74661;SHT31;63191;39.566;2.654;2023-04-01T06:55:23;20.73;59.48
74661;SHT31;63191;39.566;2.654;2023-04-01T06:58:03;21.27;58.35
74661;SHT31;63191;39.566;2.654;2023-04-01T07:00:36;21.53;57.27
74661;SHT31;63191;39.566;2.654;2023-04-01T07:06:04;23.20;53.56
74661;SHT31;63191;39.566;2.654;2023-04-01T07:08:35;24.07;51.99
74661;SHT31;63191;39.566;2.654;2023-04-01T07:11:04;25.06;50.66
74661;SHT31;63191;39.566;2.654;2023-04-01T07:16:39;27.03;46.88
74661;SHT31;63191;39.566;2.654;2023-04-01T07:19:14;27.46;44.54
74661;SHT31;63191;39.566;2.654;2023-04-01T07:22:02;27.41;43.17
74661;SHT31;63191;39.566;2.654;2023-04-01T07:24:53;27.26;43.37
74661;SHT31;63191;39.566;2.654;2023-04-01T07:27:20;27.24;42.58
74661;SHT31;63191;39.566;2.654;2023-04-01T07:29:48;26.99;42.03
74661;SHT31;63191;39.566;2.654;2023-04-01T07:35:28;27.58;40.62
74661;SHT31;63191;39.566;2.654;2023-04-01T07:38:26;26.78;41.04
74661;SHT31;63191;39.566;2.654;2023-04-01T07:44:46;24.67;43.85
74661;SHT31;63191;39.566;2.654;2023-04-01T07:55:46;23.25;48.82
74661;SHT31;63191;39.566;2.654;2023-04-01T08:01:13;22.68;51.06
74661;SHT31;63191;39.566;2.654;2023-04-01T08:03:59;22.35;52.02
74661;SHT31;63191;39.566;2.654;2023-04-01T08:06:41;22.14;52.87
74661;SHT31;63191;39.566;2.654;2023-04-01T08:20:41;22.17;53.10
74661;SHT31;63191;39.566;2.654;2023-04-01T08:23:17;22.07;52.58
74661;SHT31;63191;39.566;2.654;2023-04-01T08:25:57;22.25;53.47
74661;SHT31;63191;39.566;2.654;2023-04-01T08:29:03;23.01;52.46
74661;SHT31;63191;39.566;2.654;2023-04-01T08:34:51;22.99;50.64
74661;SHT31;63191;39.566;2.654;2023-04-01T08:37:41;22.64;51.16
74661;SHT31;63191;39.566;2.654;2023-04-01T08:40:25;22.62;51.18
74661;SHT31;63191;39.566;2.654;2023-04-01T08:43:15;22.58;50.60
74661;SHT31;63191;39.566;2.654;2023-04-01T08:55:13;22.40;52.57
74661;SHT31;63191;39.566;2.654;2023-04-01T09:00:44;22.74;51.74
74661;SHT31;63191;39.566;2.654;2023-04-01T10:00:02;21.66;53.43
74661;SHT31;63191;39.566;2.654;2023-04-01T10:23:19;24.81;48.26
74661;SHT31;63191;39.566;2.654;2023-04-01T10:36:53;25.94;45.17
74661;SHT31;63191;39.566;2.654;2023-04-01T10:45:17;26.40;42.09
74661;SHT31;63191;39.566;2.654;2023-04-01T10:54:00;27.89;36.64
74661;SHT31;63191;39.566;2.654;2023-04-01T10:56:55;28.56;35.55
74661;SHT31;63191;39.566;2.654;2023-04-01T11:05:42;29.74;32.56
74661;SHT31;63191;39.566;2.654;2023-04-01T11:12:29;30.71;31.15
74661;SHT31;63191;39.566;2.654;2023-04-01T11:17:48;30.80;30.24
74661;SHT31;63191;39.566;2.654;2023-04-01T11:35:03;28.88;33.14
74661;SHT31;63191;39.566;2.654;2023-04-01T11:40:37;27.27;35.79
74661;SHT31;63191;39.566;2.654;2023-04-01T11:43:26;26.49;37.51
74661;SHT31;63191;39.566;2.654;2023-04-01T11:48:56;26.19;38.43
74661;SHT31;63191;39.566;2.654;2023-04-01T11:59:50;27.38;37.27
74661;SHT31;63191;39.566;2.654;2023-04-01T12:02:24;28.12;36.52
74661;SHT31;63191;39.566;2.654;2023-04-01T12:04:58;29.07;34.66
74661;SHT31;63191;39.566;2.654;2023-04-01T12:11:29;30.52;31.24
74661;SHT31;63191;39.566;2.654;2023-04-01T12:27:58;34.08;27.25
74661;SHT31;63191;39.566;2.654;2023-04-01T12:51:45;35.33;26.31
74661;SHT31;63191;39.566;2.654;2023-04-01T13:10:15;36.28;25.08
74661;SHT31;63191;39.566;2.654;2023-04-01T13:16:24;35.95;25.26
74661;SHT31;63191;39.566;2.654;2023-04-01T13:19:03;35.92;24.89
74661;SHT31;63191;39.566;2.654;2023-04-01T13:21:46;35.92;24.56
74661;SHT31;63191;39.566;2.654;2023-04-01T13:24:56;35.80;23.81
74661;SHT31;63191;39.566;2.654;2023-04-01T13:30:23;35.29;23.82
74661;SHT31;63191;39.566;2.654;2023-04-01T13:35:52;33.57;24.45
74661;SHT31;63191;39.566;2.654;2023-04-01T14:00:42;27.92;28.11
74661;SHT31;63191;39.566;2.654;2023-04-01T14:03:44;27.64;28.04
74661;SHT31;63191;39.566;2.654;2023-04-01T14:06:38;27.33;28.35
74661;SHT31;63191;39.566;2.654;2023-04-01T14:23:11;26.04;31.95
74661;SHT31;63191;39.566;2.654;2023-04-01T14:26:11;25.70;33.55
74661;SHT31;63191;39.566;2.654;2023-04-01T14:32:09;24.61;35.01
74661;SHT31;63191;39.566;2.654;2023-04-01T14:50:27;22.08;43.01
74661;SHT31;63191;39.566;2.654;2023-04-01T14:53:43;21.86;43.29
74661;SHT31;63191;39.566;2.654;2023-04-01T14:55:55;21.59;45.28
74661;SHT31;63191;39.566;2.654;2023-04-01T14:58:47;21.41;47.51
74661;SHT31;63191;39.566;2.654;2023-04-01T15:04:37;21.12;45.99
74661;SHT31;63191;39.566;2.654;2023-04-01T15:10:40;20.98;45.99
74661;SHT31;63191;39.566;2.654;2023-04-01T15:19:15;20.90;46.35
74661;SHT31;63191;39.566;2.654;2023-04-01T15:34:21;20.60;51.44
74661;SHT31;63191;39.566;2.654;2023-04-01T15:37:01;20.44;52.30
74661;SHT31;63191;39.566;2.654;2023-04-01T15:45:29;20.13;54.51
74661;SHT31;63191;39.566;2.654;2023-04-01T15:48:50;20.08;58.27
74661;SHT31;63191;39.566;2.654;2023-04-01T15:57:52;19.79;61.06
74661;SHT31;63191;39.566;2.654;2023-04-01T16:00:32;19.70;61.24
74661;SHT31;63191;39.566;2.654;2023-04-01T16:03:51;19.66;60.93
74661;SHT31;63191;39.566;2.654;2023-04-01T16:21:33;19.39;62.86
74661;SHT31;63191;39.566;2.654;2023-04-01T16:30:32;19.05;64.82
74661;SHT31;63191;39.566;2.654;2023-04-01T16:36:05;18.97;65.48
74661;SHT31;63191;39.566;2.654;2023-04-01T16:38:36;18.92;65.54
74661;SHT31;63191;39.566;2.654;2023-04-01T16:41:35;18.88;65.89
74661;SHT31;63191;39.566;2.654;2023-04-01T16:44:28;18.82;65.98
74661;SHT31;63191;39.566;2.654;2023-04-01T16:47:08;18.78;65.86
74661;SHT31;63191;39.566;2.654;2023-04-01T16:49:46;18.73;65.82
74661;SHT31;63191;39.566;2.654;2023-04-01T16:52:53;18.67;65.53
74661;SHT31;63191;39.566;2.654;2023-04-01T16:58:33;18.57;63.87
74661;SHT31;63191;39.566;2.654;2023-04-01T17:01:45;18.49;64.38
74661;SHT31;63191;39.566;2.654;2023-04-01T17:19:28;18.08;64.02
74661;SHT31;63191;39.566;2.654;2023-04-01T17:28:05;17.86;63.72
74661;SHT31;63191;39.566;2.654;2023-04-01T17:30:53;17.79;63.95
74661;SHT31;63191;39.566;2.654;2023-04-01T17:45:21;17.48;67.80
74661;SHT31;63191;39.566;2.654;2023-04-01T17:47:58;17.41;68.22
74661;SHT31;63191;39.566;2.654;2023-04-01T17:56:22;17.24;68.10
74661;SHT31;63191;39.566;2.654;2023-04-01T18:04:36;17.07;67.77
74661;SHT31;63191;39.566;2.654;2023-04-01T18:09:56;16.99;68.00
74661;SHT31;63191;39.566;2.654;2023-04-01T18:13:11;16.95;68.30
74661;SHT31;63191;39.566;2.654;2023-04-01T18:22:29;16.80;69.51
74661;SHT31;63191;39.566;2.654;2023-04-01T18:25:53;16.77;69.78
74661;SHT31;63191;39.566;2.654;2023-04-01T18:31:15;16.70;70.74
74661;SHT31;63191;39.566;2.654;2023-04-01T18:42:16;16.61;70.85
74661;SHT31;63191;39.566;2.654;2023-04-01T18:47:50;16.57;70.18
74661;SHT31;63191;39.566;2.654;2023-04-01T18:50:54;16.53;69.81
74661;SHT31;63191;39.566;2.654;2023-04-01T18:56:02;16.48;69.51
74661;SHT31;63191;39.566;2.654;2023-04-01T18:58:53;16.46;69.52
74661;SHT31;63191;39.566;2.654;2023-04-01T19:01:57;16.45;69.46
74661;SHT31;63191;39.566;2.654;2023-04-01T19:04:31;16.44;69.44
74661;SHT31;63191;39.566;2.654;2023-04-01T19:16:33;16.48;69.60
74661;SHT31;63191;39.566;2.654;2023-04-01T19:21:58;16.49;70.04
74661;SHT31;63191;39.566;2.654;2023-04-01T19:36:03;16.37;71.01
74661;SHT31;63191;39.566;2.654;2023-04-01T19:38:53;16.34;71.54
74661;SHT31;63191;39.566;2.654;2023-04-01T19:48:00;16.34;72.80
74661;SHT31;63191;39.566;2.654;2023-04-01T19:50:59;16.33;72.67
74661;SHT31;63191;39.566;2.654;2023-04-01T19:56:18;16.29;72.80
74661;SHT31;63191;39.566;2.654;2023-04-01T19:58:59;16.29;72.85
74661;SHT31;63191;39.566;2.654;2023-04-01T20:04:19;16.27;72.80
74661;SHT31;63191;39.566;2.654;2023-04-01T20:09:52;16.25;72.74
74661;SHT31;63191;39.566;2.654;2023-04-01T20:12:46;16.27;72.60
74661;SHT31;63191;39.566;2.654;2023-04-01T20:15:31;16.32;72.44
74661;SHT31;63191;39.566;2.654;2023-04-01T20:20:55;16.41;72.15
74661;SHT31;63191;39.566;2.654;2023-04-01T20:23:34;16.45;72.02
74661;SHT31;63191;39.566;2.654;2023-04-01T20:26:13;16.50;72.00
74661;SHT31;63191;39.566;2.654;2023-04-01T20:29:02;16.55;72.01
74661;SHT31;63191;39.566;2.654;2023-04-01T20:31:42;16.60;72.12
74661;SHT31;63191;39.566;2.654;2023-04-01T20:45:49;16.53;75.09
74661;SHT31;63191;39.566;2.654;2023-04-01T20:51:43;16.52;75.59
74661;SHT31;63191;39.566;2.654;2023-04-01T20:57:14;16.56;75.70
74661;SHT31;63191;39.566;2.654;2023-04-01T21:00:16;16.58;75.70
74661;SHT31;63191;39.566;2.654;2023-04-01T21:20:38;15.98;80.81
74661;SHT31;63191;39.566;2.654;2023-04-01T21:26:42;15.71;84.00
74661;SHT31;63191;39.566;2.654;2023-04-01T21:32:56;15.62;84.89
74661;SHT31;63191;39.566;2.654;2023-04-01T21:38:31;15.67;85.18
74661;SHT31;63191;39.566;2.654;2023-04-01T21:50:26;15.87;85.14
74661;SHT31;63191;39.566;2.654;2023-04-01T21:56:43;15.89;85.50
74661;SHT31;63191;39.566;2.654;2023-04-01T22:08:07;15.62;85.52
74661;SHT31;63191;39.566;2.654;2023-04-01T22:11:34;14.94;81.93
74661;SHT31;63191;39.566;2.654;2023-04-01T22:13:49;14.09;79.76
74661;SHT31;63191;39.566;2.654;2023-04-01T22:16:28;13.44;79.87
74661;SHT31;63191;39.566;2.654;2023-04-01T22:19:08;12.96;80.21
74661;SHT31;63191;39.566;2.654;2023-04-01T22:24:29;12.32;81.33
74661;SHT31;63191;39.566;2.654;2023-04-01T22:30:39;11.94;82.28
74661;SHT31;63191;39.566;2.654;2023-04-01T22:33:10;11.81;82.70
74661;SHT31;63191;39.566;2.654;2023-04-01T22:50:57;11.96;83.70
74661;SHT31;63191;39.566;2.654;2023-04-01T22:53:50;12.07;83.33
74661;SHT31;63191;39.566;2.654;2023-04-01T22:56:34;12.20;82.92
74661;SHT31;63191;39.566;2.654;2023-04-01T22:59:08;12.32;82.61
74661;SHT31;63191;39.566;2.654;2023-04-01T23:02:00;12.41;82.23
74661;SHT31;63191;39.566;2.654;2023-04-01T23:04:37;12.52;81.94
74661;SHT31;63191;39.566;2.654;2023-04-01T23:07:30;12.60;81.46
74661;SHT31;63191;39.566;2.654;2023-04-01T23:10:22;12.67;80.26
74661;SHT31;63191;39.566;2.654;2023-04-01T23:13:16;12.72;79.00
74661;SHT31;63191;39.566;2.654;2023-04-01T23:15:47;12.74;77.76
74661;SHT31;63191;39.566;2.654;2023-04-01T23:23:42;12.73;75.96
74661;SHT31;63191;39.566;2.654;2023-04-01T23:33:23;12.12;77.95
74661;SHT31;63191;39.566;2.654;2023-04-01T23:36:00;11.89;79.35
74661;SHT31;63191;39.566;2.654;2023-04-01T23:38:40;11.71;80.41
74661;SHT31;63191;39.566;2.654;2023-04-01T23:41:23;11.54;81.25
74661;SHT31;63191;39.566;2.654;2023-04-01T23:44:00;11.39;82.01
74661;SHT31;63191;39.566;2.654;2023-04-01T23:46:30;11.24;82.59
74661;SHT31;63191;39.566;2.654;2023-04-01T23:48:58;11.15;83.05
74661;SHT31;63191;39.566;2.654;2023-04-01T23:51:37;11.09;83.58
74661;SHT31;63191;39.566;2.654;2023-04-01T23:56:59;11.00;84.24
74661;SHT31;63191;39.566;2.654;2023-04-01T23:59:36;11.00;84.63
